createdAt,value
2016-10-30T11:59:02.713Z,960
2016-10-30T12:00:15.577Z,728
2016-10-30T12:01:29.834Z,620
2016-10-30T12:02:42.943Z,788
2016-10-30T12:03:56.030Z,1224
2016-10-30T12:05:09.672Z,1480
2016-10-30T12:06:23.273Z,1144
2016-10-30T12:07:36.869Z,1284
2016-10-30T12:08:50.444Z,1260
2016-10-30T12:10:04.051Z,1352
2016-10-30T12:11:17.738Z,1488
2016-10-30T12:13:33.522Z,1664
2016-10-30T12:14:47.167Z,1776
2016-10-30T12:15:59.179Z,1812
2016-10-30T12:17:12.279Z,2036
2016-10-30T12:18:25.399Z,2020
2016-10-30T12:19:39.040Z,2204
2016-10-30T12:20:52.701Z,2312
2016-10-30T12:22:06.348Z,2448
2016-10-30T12:23:19.942Z,2624
2016-10-30T12:24:32.996Z,2460
2016-10-30T12:25:46.629Z,2568
2016-10-30T12:26:59.741Z,2808
2016-10-30T12:28:12.789Z,2736
2016-10-30T12:29:25.905Z,3356
2016-10-30T12:30:38.814Z,3384
2016-10-30T12:31:51.351Z,3472
2016-10-30T12:33:04.991Z,3488
2016-10-30T12:34:18.911Z,3560
2016-10-30T12:35:32.004Z,3544
2016-10-30T12:36:46.069Z,3568
2016-10-30T12:37:59.163Z,3704
2016-10-30T12:39:12.803Z,3640
2016-10-30T12:40:26.450Z,3796
2016-10-30T12:41:39.571Z,3836
2016-10-30T12:42:52.655Z,3880
2016-10-30T12:44:06.263Z,3956
2016-10-30T12:45:19.972Z,4036
2016-10-30T12:46:33.590Z,4052
2016-10-30T12:47:47.301Z,4116
2016-10-30T12:49:00.877Z,4184
2016-10-30T12:50:14.747Z,4208
2016-10-30T12:51:27.870Z,4272
2016-10-30T12:52:41.498Z,4240
2016-10-30T12:53:54.556Z,4384
2016-10-30T12:55:08.680Z,4416
2016-10-30T12:56:21.792Z,4472
2016-10-30T12:57:35.560Z,4488
2016-10-30T12:58:49.208Z,4536
2016-10-30T13:00:02.790Z,4620
2016-10-30T13:01:15.882Z,4692
2016-10-30T13:02:29.519Z,4692
2016-10-30T13:03:43.167Z,4720
2016-10-30T13:04:56.260Z,4828
2016-10-30T13:06:09.309Z,4868
2016-10-30T13:07:23.011Z,4932
2016-10-30T13:08:36.056Z,4984
2016-10-30T13:09:49.110Z,5044
2016-10-30T13:11:02.701Z,5128
2016-10-30T13:12:15.795Z,5184
2016-10-30T13:13:28.832Z,5176
2016-10-30T13:14:42.535Z,5256
2016-10-30T13:15:56.197Z,5348
2016-10-30T13:17:09.832Z,5340
2016-10-30T13:18:23.430Z,5348
2016-10-30T13:19:37.099Z,5404
2016-10-30T13:20:50.729Z,5472
2016-10-30T13:22:04.407Z,5504
2016-10-30T13:23:17.780Z,5544
2016-10-30T13:24:31.394Z,5520
2016-10-30T13:25:44.432Z,5236
2016-10-30T13:26:58.105Z,5264
2016-10-30T13:28:11.850Z,5736
2016-10-30T13:29:25.446Z,5780
2016-10-30T13:30:38.605Z,5808
2016-10-30T13:31:52.255Z,5844
2016-10-30T13:33:05.829Z,5856
2016-10-30T13:34:19.477Z,5852
2016-10-30T13:35:33.123Z,5868
2016-10-30T13:36:46.815Z,5964
2016-10-30T13:37:59.937Z,6092
2016-10-30T13:39:13.245Z,6184
2016-10-30T13:40:26.885Z,6308
2016-10-30T13:41:40.534Z,6284
2016-10-30T13:42:54.206Z,6136
2016-10-30T13:44:07.871Z,6276
2016-10-30T13:45:20.952Z,6288
2016-10-30T13:46:34.551Z,6616
2016-10-30T13:47:48.170Z,6768
2016-10-30T13:49:01.732Z,6808
2016-10-30T13:50:14.770Z,6828
2016-10-30T13:51:28.447Z,6908
2016-10-30T13:52:42.117Z,7132
2016-10-30T13:53:55.176Z,7124
2016-10-30T13:55:08.793Z,7088
2016-10-30T13:56:21.866Z,7276
2016-10-30T13:57:34.995Z,7236
2016-10-30T13:58:48.542Z,7380
2016-10-30T14:00:02.181Z,7344
2016-10-30T14:01:15.473Z,7468
2016-10-30T14:02:29.121Z,7548
2016-10-30T14:03:42.777Z,7520
2016-10-30T14:04:56.423Z,7648
2016-10-30T14:06:09.441Z,7720
2016-10-30T14:07:23.125Z,7804
2016-10-30T14:08:36.830Z,7924
2016-10-30T14:09:49.929Z,7932
2016-10-30T14:11:03.068Z,7908
2016-10-30T14:12:16.197Z,7604
2016-10-30T14:13:29.843Z,8056
2016-10-30T14:14:42.390Z,8216
2016-10-30T14:15:55.934Z,8280
2016-10-30T14:17:09.299Z,2788
2016-10-30T14:18:22.489Z,6068
2016-10-30T14:19:36.151Z,8656
2016-10-30T14:20:49.906Z,8640
2016-10-30T14:22:03.576Z,8720
2016-10-30T14:23:16.676Z,8752
2016-10-30T14:24:29.840Z,8840
2016-10-30T14:25:43.507Z,8820
2016-10-30T14:26:56.567Z,8892
2016-10-30T14:28:09.670Z,8884
2016-10-30T14:29:23.306Z,8980
2016-10-30T14:30:35.903Z,9044
2016-10-30T14:31:49.028Z,9052
2016-10-30T14:33:02.141Z,9072
2016-10-30T14:34:16.024Z,9200
2016-10-30T14:35:28.593Z,9128
2016-10-30T14:36:41.700Z,9356
2016-10-30T14:37:55.328Z,9448
2016-10-30T14:39:08.751Z,9456
2016-10-30T14:40:21.288Z,9504
2016-10-30T14:41:34.930Z,9516
2016-10-30T14:42:48.614Z,9544
2016-10-30T14:44:02.256Z,9516
2016-10-30T14:45:16.111Z,9776
2016-10-30T14:46:29.759Z,9776
2016-10-30T14:47:42.871Z,9836
2016-10-30T14:48:55.947Z,9776
2016-10-30T14:50:09.576Z,9876
2016-10-30T14:51:23.316Z,10128
2016-10-30T14:52:36.945Z,10120
2016-10-30T14:53:50.003Z,10156
2016-10-30T14:55:03.120Z,10012
2016-10-30T14:56:16.199Z,10144
2016-10-30T14:57:29.857Z,7672
2016-10-30T14:58:43.487Z,10564
2016-10-30T14:59:57.039Z,10724
2016-10-30T15:01:10.716Z,10648
2016-10-30T15:02:24.364Z,10472
2016-10-30T15:03:37.412Z,10440
2016-10-30T15:04:51.103Z,10348
2016-10-30T15:06:04.753Z,10336
2016-10-30T15:07:17.873Z,10452
2016-10-30T15:08:31.057Z,10516
2016-10-30T15:09:44.321Z,10580
2016-10-30T15:10:57.679Z,10412
2016-10-30T15:12:11.679Z,10428
2016-10-30T15:13:25.337Z,10628
2016-10-30T15:14:38.537Z,10648
2016-10-30T15:15:52.165Z,10728
2016-10-30T15:17:05.606Z,10628
2016-10-30T15:18:18.714Z,10728
2016-10-30T15:19:31.721Z,10828
2016-10-30T15:20:44.999Z,10916
2016-10-30T15:21:58.646Z,10892
2016-10-30T15:23:11.713Z,10780
2016-10-30T15:24:25.316Z,10304
2016-10-30T15:25:38.937Z,10576
2016-10-30T15:26:52.051Z,10544
2016-10-30T15:28:05.723Z,10672
2016-10-30T15:29:18.858Z,10532
2016-10-30T15:30:31.978Z,10652
2016-10-30T15:31:45.610Z,10452
2016-10-30T15:32:59.259Z,10416
2016-10-30T15:34:12.362Z,10352
2016-10-30T15:35:25.510Z,10552
2016-10-30T15:36:39.182Z,10520
2016-10-30T15:37:52.840Z,10452
2016-10-30T15:39:06.425Z,10596
2016-10-30T15:40:19.551Z,10500
2016-10-30T15:41:32.661Z,10620
2016-10-30T15:42:45.685Z,10576
2016-10-30T15:43:59.272Z,10692
2016-10-30T15:45:12.926Z,10664
2016-10-30T15:46:26.553Z,10328
2016-10-30T15:47:40.246Z,10772
2016-10-30T15:48:53.963Z,10784
2016-10-30T15:50:07.130Z,10660
2016-10-30T15:51:20.719Z,10536
2016-10-30T15:52:34.333Z,10636
2016-10-30T15:53:47.953Z,10548
2016-10-30T15:55:01.530Z,10728
2016-10-30T15:56:14.652Z,10652
2016-10-30T15:57:27.741Z,10612
2016-10-30T15:58:40.905Z,10720
2016-10-30T15:59:54.051Z,10484
2016-10-30T16:01:07.130Z,10552
2016-10-30T16:02:20.817Z,10684
2016-10-30T16:03:33.868Z,10616
2016-10-30T16:04:47.476Z,10172
2016-10-30T16:06:01.066Z,10600
2016-10-30T16:07:14.984Z,10368
2016-10-30T16:08:28.118Z,10480
2016-10-30T16:09:41.863Z,10356
2016-10-30T16:10:53.832Z,10356
2016-10-30T16:12:06.950Z,10700
2016-10-30T16:13:20.540Z,4812
2016-10-30T16:14:33.094Z,10864
2016-10-30T16:15:46.796Z,10376
2016-10-30T16:16:59.870Z,10512
2016-10-30T16:18:13.425Z,10432
2016-10-30T16:19:27.099Z,10060
2016-10-30T16:20:40.740Z,10136
2016-10-30T16:21:53.832Z,9968
2016-10-30T16:23:07.420Z,10032
2016-10-30T16:24:20.545Z,10144
2016-10-30T16:25:33.651Z,3560
2016-10-30T16:26:46.713Z,3676
2016-10-30T16:28:00.382Z,10028
2016-10-30T16:29:14.001Z,10700
2016-10-30T16:30:27.620Z,10476
2016-10-30T16:31:40.788Z,10192
2016-10-30T16:32:53.340Z,10152
2016-10-30T16:34:06.971Z,9748
2016-10-30T16:35:20.547Z,8992
2016-10-30T16:36:34.201Z,8500
2016-10-30T16:37:47.951Z,9408
2016-10-30T16:39:01.048Z,9728
2016-10-30T16:40:14.178Z,10192
2016-10-30T16:41:27.765Z,8332
2016-10-30T16:42:41.702Z,3112
2016-10-30T16:43:55.360Z,4092
2016-10-30T16:45:09.091Z,9768
2016-10-30T16:46:22.173Z,9456
2016-10-30T16:47:35.769Z,5832
2016-10-30T16:48:49.408Z,9916
2016-10-30T16:50:03.045Z,9204
2016-10-30T16:51:16.634Z,9296
2016-10-30T16:52:30.258Z,9944
2016-10-30T16:53:43.902Z,8556
2016-10-30T16:54:56.953Z,8240
2016-10-30T16:56:10.087Z,9476
2016-10-30T16:57:23.204Z,10184
2016-10-30T16:58:36.827Z,10016
2016-10-30T16:59:50.440Z,9148
2016-10-30T17:01:04.114Z,9584
2016-10-30T17:02:18.019Z,9452
2016-10-30T17:03:31.643Z,9608
2016-10-30T17:04:45.281Z,5496
2016-10-30T17:05:58.912Z,9260
2016-10-30T17:07:12.501Z,9300
2016-10-30T17:08:26.137Z,9212
2016-10-30T17:09:39.740Z,9440
2016-10-30T17:10:52.864Z,8900
2016-10-30T17:12:06.513Z,8908
2016-10-30T17:13:19.550Z,7932
2016-10-30T17:14:32.633Z,2692
2016-10-30T17:15:46.231Z,5064
2016-10-30T17:16:58.777Z,4856
2016-10-30T17:18:11.684Z,3184
2016-10-30T17:19:25.338Z,9320
2016-10-30T17:20:38.913Z,6128
2016-10-30T17:21:51.987Z,8708
2016-10-30T17:23:05.735Z,5856
2016-10-30T17:24:19.355Z,2736
2016-10-30T17:25:32.929Z,2400
2016-10-30T17:26:46.563Z,2464
2016-10-30T17:27:59.614Z,3328
2016-10-30T17:29:13.281Z,5940
2016-10-30T17:30:27.001Z,8372
2016-10-30T17:31:40.681Z,9040
2016-10-30T17:32:54.357Z,8788
2016-10-30T17:34:07.514Z,8508
2016-10-30T17:35:21.129Z,4496
2016-10-30T17:36:34.820Z,2456
2016-10-30T17:37:48.413Z,4684
2016-10-30T17:39:02.016Z,8556
2016-10-30T17:40:14.817Z,4748
2016-10-30T17:41:26.820Z,3384
2016-10-30T17:42:39.333Z,2648
2016-10-30T17:43:52.939Z,1956
2016-10-30T17:45:06.586Z,3028
2016-10-30T17:46:20.121Z,5964
2016-10-30T17:47:33.780Z,3496
2016-10-30T17:48:47.416Z,3120
2016-10-30T17:50:00.555Z,4764
2016-10-30T17:51:14.206Z,8292
2016-10-30T17:52:27.882Z,7532
2016-10-30T17:53:41.901Z,2112
2016-10-30T17:54:55.241Z,1948
2016-10-30T17:56:08.910Z,2004
2016-10-30T17:57:22.558Z,1936
2016-10-30T17:58:36.113Z,3816
2016-10-30T17:59:49.742Z,7656
2016-10-30T18:01:03.397Z,7208
2016-10-30T18:02:17.085Z,4380
2016-10-30T18:03:30.749Z,1620
2016-10-30T18:04:44.376Z,1432
2016-10-30T18:05:56.982Z,2940
2016-10-30T18:07:10.643Z,5752
2016-10-30T18:08:24.260Z,6904
2016-10-30T18:09:37.881Z,6820
2016-10-30T18:10:51.449Z,2236
2016-10-30T18:12:05.147Z,2284
2016-10-30T18:13:18.077Z,2252
2016-10-30T18:14:31.678Z,2736
2016-10-30T18:15:45.298Z,2816
2016-10-30T18:16:58.870Z,6064
2016-10-30T18:18:12.460Z,2516
2016-10-30T18:19:26.149Z,2300
2016-10-30T18:20:39.769Z,3124
2016-10-30T18:21:53.361Z,2004
2016-10-30T18:23:07.003Z,1720
2016-10-30T18:24:20.184Z,1676
2016-10-30T18:25:33.248Z,1784
2016-10-30T18:26:46.305Z,1868
2016-10-30T18:27:59.619Z,1528
2016-10-30T18:29:12.718Z,1652
2016-10-30T18:30:25.800Z,1760
2016-10-30T18:31:38.915Z,1604
2016-10-30T18:32:52.497Z,1528
2016-10-30T18:34:05.848Z,1628
2016-10-30T18:35:19.490Z,1280
2016-10-30T18:36:33.117Z,1444
2016-10-30T18:37:46.739Z,1872
2016-10-30T18:38:59.842Z,1688
2016-10-30T18:40:13.425Z,1484
2016-10-30T18:41:26.587Z,1432
2016-10-30T18:42:40.246Z,1136
2016-10-30T18:43:52.242Z,1072
2016-10-30T18:45:05.856Z,1208
2016-10-30T18:46:19.495Z,1580
2016-10-30T18:47:33.134Z,1148
2016-10-30T18:48:46.244Z,964
2016-10-30T18:49:59.832Z,848
2016-10-30T18:51:13.334Z,764
2016-10-30T18:52:26.947Z,884
2016-10-30T18:53:40.580Z,1208
2016-10-30T18:54:53.888Z,1300
2016-10-30T18:56:06.935Z,832
2016-10-30T18:57:20.052Z,772
2016-10-30T18:58:33.708Z,872
2016-10-30T18:59:46.791Z,804
2016-10-30T19:00:59.846Z,820
2016-10-30T19:02:12.967Z,664
2016-10-30T19:03:26.559Z,700
2016-10-30T19:04:39.952Z,932
2016-10-30T19:05:53.589Z,992
2016-10-30T19:07:07.161Z,664
2016-10-30T19:08:20.817Z,624
2016-10-30T19:09:33.932Z,644
2016-10-30T19:10:47.600Z,872
2016-10-30T19:12:00.678Z,808
2016-10-30T19:13:14.258Z,588
2016-10-30T19:14:27.395Z,628
2016-10-30T19:15:41.066Z,756
2016-10-30T19:16:54.678Z,804
2016-10-30T19:18:08.274Z,600
2016-10-30T19:19:21.938Z,544
2016-10-30T19:20:35.025Z,528
2016-10-30T19:21:48.059Z,432
2016-10-30T19:23:01.109Z,408
2016-10-30T19:24:15.092Z,412
2016-10-30T19:25:28.140Z,488
2016-10-30T19:26:42.064Z,528
2016-10-30T19:27:55.764Z,416
2016-10-30T19:29:08.593Z,400
2016-10-30T19:30:22.215Z,404
2016-10-30T19:31:35.904Z,424
2016-10-30T19:32:49.538Z,392
2016-10-30T19:34:02.699Z,452
2016-10-30T19:35:16.328Z,528
2016-10-30T19:36:29.128Z,412
2016-10-30T19:37:42.729Z,392
2016-10-30T19:38:56.389Z,316
2016-10-30T19:40:09.400Z,312
2016-10-30T19:41:22.993Z,308
2016-10-30T19:42:36.085Z,312
2016-10-30T19:43:49.182Z,308
2016-10-30T19:45:02.791Z,300
2016-10-30T19:46:16.415Z,252
2016-10-30T19:47:29.565Z,228
2016-10-30T19:48:43.179Z,216
2016-10-30T19:49:56.769Z,236
2016-10-30T19:51:10.378Z,252
2016-10-30T19:52:23.434Z,256
2016-10-30T19:53:36.998Z,172
2016-10-30T19:54:50.650Z,156
2016-10-30T19:56:04.326Z,156
2016-10-30T19:57:17.946Z,192
2016-10-30T19:58:31.570Z,180
2016-10-30T19:59:45.266Z,168
2016-10-30T20:00:58.322Z,140
2016-10-30T20:02:12.035Z,132
2016-10-30T20:03:25.595Z,160
2016-10-30T20:04:38.679Z,152
2016-10-30T20:05:52.298Z,128
2016-10-30T20:07:05.918Z,124
2016-10-30T20:08:19.528Z,132
2016-10-30T20:09:32.885Z,144
2016-10-30T20:10:46.549Z,120
2016-10-30T20:11:59.119Z,116
2016-10-30T20:13:12.767Z,144
2016-10-30T20:14:26.347Z,144
2016-10-30T20:15:39.697Z,116
2016-10-30T20:16:53.379Z,112
2016-10-30T20:18:06.771Z,116
2016-10-30T20:19:20.342Z,112
2016-10-30T20:20:34.019Z,112
2016-10-30T20:21:47.699Z,100
2016-10-30T20:23:01.316Z,92
2016-10-30T20:24:15.334Z,88
2016-10-30T20:25:28.434Z,100
2016-10-30T20:26:42.191Z,108
2016-10-30T20:27:55.834Z,84
2016-10-30T20:29:09.527Z,76
2016-10-30T20:30:23.203Z,68
2016-10-30T20:31:36.811Z,68
2016-10-30T20:32:50.404Z,72
2016-10-30T20:35:48.706Z,68
2016-10-30T20:37:01.778Z,68
2016-10-30T20:38:14.765Z,80
2016-10-30T20:39:28.404Z,76
2016-10-30T20:40:41.644Z,72
2016-10-30T20:41:55.247Z,68
2016-10-30T20:43:09.052Z,64
2016-10-30T20:44:22.138Z,68
2016-10-30T20:45:35.185Z,64
2016-10-30T20:46:48.016Z,56
2016-10-30T20:48:01.101Z,48
2016-10-30T20:49:14.404Z,44
2016-10-30T20:50:28.029Z,48
2016-10-30T20:51:42.073Z,40
2016-10-30T20:52:55.215Z,36
2016-10-30T20:54:08.092Z,28
2016-10-30T20:55:21.762Z,32
2016-10-30T20:56:35.862Z,40
2016-10-30T20:57:49.508Z,36
2016-10-30T20:59:03.139Z,28
2016-10-30T21:00:16.700Z,28
2016-10-30T21:01:29.794Z,36
2016-10-30T21:02:43.387Z,40
2016-10-30T21:03:56.991Z,32
2016-10-30T21:05:10.701Z,28
2016-10-30T21:06:23.835Z,24
2016-10-30T21:07:36.875Z,24
2016-10-30T21:08:50.535Z,20
2016-10-30T21:10:04.148Z,16
2016-10-30T21:11:17.599Z,12
2016-10-30T21:12:30.731Z,12
2016-10-30T21:13:43.831Z,12
2016-10-30T21:14:57.395Z,8
2016-10-30T21:16:11.053Z,12
2016-10-30T21:17:24.692Z,8
2016-10-30T21:18:38.295Z,8
2016-10-30T21:19:51.915Z,4
2016-10-30T21:21:05.020Z,8
2016-10-30T21:22:18.232Z,4
2016-10-30T21:23:31.790Z,4
2016-10-30T21:24:45.266Z,4
2016-10-30T21:25:58.318Z,4
2016-10-30T21:27:10.841Z,4
2016-10-30T21:28:24.529Z,4
2016-10-30T21:29:37.689Z,0
2016-10-30T21:30:50.771Z,0
2016-10-30T21:32:04.443Z,0
2016-10-30T21:33:17.597Z,4
2016-10-30T21:34:30.653Z,4
2016-10-30T21:35:43.757Z,0
2016-10-30T21:36:56.844Z,0
2016-10-30T21:38:10.470Z,0
2016-10-30T21:39:23.328Z,0
2016-10-30T21:40:36.895Z,0
2016-10-30T21:41:49.496Z,0
2016-10-30T21:43:03.095Z,0
2016-10-30T21:44:16.779Z,0
2016-10-30T21:45:30.420Z,0
2016-10-30T21:46:43.412Z,0
2016-10-30T21:47:57.038Z,0
2016-10-30T21:49:10.084Z,0
2016-10-30T21:50:23.683Z,0
2016-10-30T21:51:37.250Z,0
2016-10-30T21:52:50.368Z,0
2016-10-30T21:54:03.956Z,0
2016-10-30T21:55:17.093Z,0
2016-10-30T21:56:30.742Z,0
2016-10-30T21:57:44.435Z,0
2016-10-30T21:58:57.184Z,0
2016-10-30T22:00:10.487Z,0
2016-10-30T22:01:24.063Z,0
2016-10-30T22:02:37.145Z,0
2016-10-30T22:03:50.805Z,0
2016-10-30T22:05:04.453Z,0
2016-10-30T22:06:17.614Z,0
2016-10-30T22:07:31.221Z,0
2016-10-30T22:08:45.308Z,0
2016-10-30T22:09:58.465Z,0
2016-10-30T22:11:12.178Z,0
2016-10-30T22:12:25.769Z,0
2016-10-30T22:13:39.179Z,0
2016-10-30T22:14:52.920Z,0
2016-10-30T22:16:06.048Z,0
2016-10-30T22:17:19.662Z,0
2016-10-30T22:18:33.002Z,0
2016-10-30T22:19:46.305Z,0
2016-10-30T22:20:59.906Z,0
2016-10-30T22:22:13.500Z,0
2016-10-30T22:23:27.117Z,0
2016-10-30T22:24:40.238Z,0
2016-10-30T22:25:52.470Z,0
2016-10-30T22:27:05.807Z,0
2016-10-30T22:28:19.491Z,0
2016-10-30T22:29:33.068Z,0
2016-10-30T22:30:46.636Z,0
2016-10-30T22:31:59.643Z,0
2016-10-30T22:33:13.243Z,0
2016-10-30T22:34:26.565Z,0
2016-10-30T22:35:39.426Z,0
2016-10-30T22:36:53.087Z,0
2016-10-30T22:38:06.199Z,0
2016-10-30T22:39:19.819Z,0
2016-10-30T22:40:33.462Z,0
2016-10-30T22:41:47.104Z,0
2016-10-30T22:42:59.629Z,0
2016-10-30T22:44:12.693Z,0
2016-10-30T22:45:26.348Z,0
2016-10-30T22:46:39.486Z,0
2016-10-30T22:47:53.150Z,0
2016-10-30T22:49:06.728Z,0
2016-10-30T22:50:20.343Z,0
2016-10-30T22:51:34.030Z,0
2016-10-30T22:52:46.618Z,0
2016-10-30T22:54:00.177Z,0
2016-10-30T22:55:13.280Z,0
2016-10-30T22:56:26.981Z,0
2016-10-30T22:57:40.668Z,0
2016-10-30T22:58:54.288Z,0
2016-10-30T23:00:07.372Z,0
2016-10-30T23:01:21.018Z,0
2016-10-30T23:02:34.119Z,0
2016-10-30T23:03:47.218Z,0
2016-10-30T23:05:00.863Z,0
2016-10-30T23:06:14.496Z,0
2016-10-30T23:07:28.114Z,0
2016-10-30T23:08:41.848Z,0
2016-10-30T23:09:55.442Z,0
2016-10-30T23:11:09.158Z,0
2016-10-30T23:12:22.798Z,0
2016-10-30T23:13:35.943Z,0
2016-10-30T23:14:49.535Z,0
2016-10-30T23:16:02.631Z,0
2016-10-30T23:17:16.593Z,0
2016-10-30T23:18:30.243Z,0
2016-10-30T23:19:43.945Z,0
2016-10-30T23:20:57.105Z,0
2016-10-30T23:22:09.964Z,0
2016-10-30T23:23:23.658Z,0
2016-10-30T23:24:36.776Z,0
2016-10-30T23:25:50.461Z,0
2016-10-30T23:27:04.034Z,0
2016-10-30T23:28:17.665Z,0
2016-10-30T23:29:31.312Z,0
2016-10-30T23:30:45.307Z,0
2016-10-30T23:31:58.392Z,0
2016-10-30T23:33:11.786Z,0
2016-10-30T23:34:25.364Z,0
2016-10-30T23:35:39.132Z,0
2016-10-30T23:36:52.750Z,0
2016-10-30T23:38:06.035Z,0
2016-10-30T23:39:19.725Z,0
2016-10-30T23:40:33.102Z,0
2016-10-30T23:41:46.327Z,0
2016-10-30T23:42:59.997Z,0
2016-10-30T23:44:13.613Z,0
2016-10-30T23:45:27.252Z,0
2016-10-30T23:46:40.292Z,0
2016-10-30T23:47:53.427Z,0
2016-10-30T23:49:07.093Z,0
2016-10-30T23:50:20.696Z,0
2016-10-30T23:51:34.335Z,0
2016-10-30T23:52:48.051Z,0
2016-10-30T23:54:01.810Z,0
2016-10-30T23:55:15.509Z,0
2016-10-30T23:56:28.921Z,0
2016-10-30T23:57:42.569Z,0
2016-10-30T23:58:56.174Z,0
